LKY weather

Lake Manyara Airport
Lake Manyara National Park, Manyara Region, Tanzania

Public forecast

Using degrees Celsius for public forecast. Weather courtesy of forecast.io.

METAR (pilot weather report)

Report is more than 6 hours old.

Closest report is Arusha Airport, 48.9 nm (90.5 km) E. Retrieved 2019/04/18 12:00 UTC (3 days ago):

HTAR 181200Z 17008KT 9999 SCT034 30/12 Q1017 NOSIG

TAF (pilot weather forecast)

Forecast is more than 12 hours old.

Closest forecast is Arusha Airport, 48.9 nm (90.5 km) E. Retrieved 2019/04/18 06:12 UTC (4 days ago):

TAF HTAR 180500Z 1806/1906 12005KT 9999 BKN025 BECMG 1811/1814 FEW033 FEW035CB BECMG 1816/1819 NSC